Germfask, Michigan
Current Conditions -  °F | °C
As of 3:14 PM on Sunday 23 Nov 2014 (Local Time) from KISQ Reporting Station
Haze Haze  
Wind Chill: 36°   Ceiling: 900
Heat Index: 41°   Visibility: 5mi
Dew Point: 41°   Wind: 8mph
Humidity: 99%   Direction: 170°S
Pressure: 29.53"   Gusts: NA
Location:  46.25°N, 85.93°W
Report Text: KISQ 232014Z AUTO 17007KT 130V200 5SM BR OVC009 05/05 A2953 RMK AO2 T00500049
Loading
Personal Weather Stations






























Interactive Weather Map New forecast layout! Learn more

10-Day Weather Forecast

Advertisements
Track Severe Weather on mobile